Time;durP1;ratioP1;P1;durP2;ratioP2;P2;SDS_P1;SDS_P2;PMS_P1;PMS_P2;Temp;Humidity;BMP_temperature;BMP_pressure;BME280_temperature;BME280_humidity;BME280_pressure;Samples;Min_cycle;Max_cycle;Signal;HPM_P1;HPM_P2
2022/01/18 00:01:19;;;;;;;2.58;1.72;;;;;;;1.68;84.97;98742.00;1658318;86;21360;-62
2022/01/18 00:04:27;;;;;;;5.17;1.67;;;;;;;1.68;85.10;98739.30;1658173;86;21271;-61
2022/01/18 00:07:34;;;;;;;3.98;1.87;;;;;;;1.70;85.07;98747.23;1658405;85;21264;-61
2022/01/18 00:10:40;;;;;;;3.98;1.80;;;;;;;1.68;85.01;98755.97;1657997;86;21223;-62
2022/01/18 00:13:57;;;;;;;5.03;2.05;;;;;;;1.69;84.87;98756.30;1658279;86;21378;-61
2022/01/18 00:20:19;;;;;;;3.02;1.60;;;;;;;1.68;84.23;98762.22;1649648;86;21243;-62
2022/01/18 00:23:24;;;;;;;3.60;1.90;;;;;;;1.67;83.81;98770.44;1658262;86;21361;-62
2022/01/18 00:26:32;;;;;;;3.72;1.80;;;;;;;1.66;83.28;98778.20;1658261;86;21847;-62
2022/01/18 00:29:42;;;;;;;4.35;1.95;;;;;;;1.65;82.59;98775.99;1658297;86;21918;-62
2022/01/18 00:33:01;;;;;;;2.83;1.60;;;;;;;1.63;81.93;98791.51;1658058;86;21243;-63
2022/01/18 00:36:01;;;;;;;5.05;1.87;;;;;;;1.61;81.46;98796.20;1658486;86;21357;-61
2022/01/18 00:39:05;;;;;;;2.42;1.60;;;;;;;1.58;80.95;98802.41;1658236;86;21578;-62
2022/01/18 00:42:13;;;;;;;2.95;1.67;;;;;;;1.54;80.58;98797.34;1658349;86;21397;-62
2022/01/18 00:45:19;;;;;;;3.98;1.52;;;;;;;1.53;80.37;98800.19;1668116;80;21221;-62
2022/01/18 00:48:32;;;;;;;2.35;1.70;;;;;;;1.51;80.24;98793.61;1677571;85;21232;-63
2022/01/18 00:51:38;;;;;;;5.92;2.00;;;;;;;1.51;79.93;98780.13;1677884;85;21275;-62
2022/01/18 00:54:46;;;;;;;2.33;1.77;;;;;;;1.50;79.78;98789.72;1677645;85;21314;-61
2022/01/18 00:57:54;;;;;;;4.25;2.58;;;;;;;1.48;79.54;98795.77;1678190;85;21256;-63
2022/01/18 01:00:59;;;;;;;2.12;1.60;;;;;;;1.43;79.46;98784.12;1678006;85;21228;-62
2022/01/18 01:04:07;;;;;;;5.67;2.00;;;;;;;1.40;79.35;98786.27;1677831;85;21820;-63
2022/01/18 01:07:12;;;;;;;3.15;2.35;;;;;;;1.36;79.26;98792.47;1677583;85;21506;-63
2022/01/18 01:10:20;;;;;;;2.10;1.52;;;;;;;1.32;79.21;98784.38;1677575;85;21764;-62
2022/01/18 01:13:27;;;;;;;3.72;1.80;;;;;;;1.30;79.22;98795.80;1677945;85;21216;-62
2022/01/18 01:16:50;;;;;;;7.20;2.10;;;;;;;1.30;79.20;98802.53;1677697;85;21287;-62
2022/01/18 01:36:41;;;;;;;3.80;1.85;;;;;;;1.27;78.96;98819.02;1677722;85;21709;-62
2022/01/18 01:46:11;;;;;;;4.58;2.30;;;;;;;1.20;78.82;98812.58;1679861;82;21766;-62
2022/01/18 01:49:18;;;;;;;4.72;2.37;;;;;;;1.19;78.75;98810.88;1677563;85;21302;-62
2022/01/18 01:52:23;;;;;;;5.45;2.20;;;;;;;1.16;78.65;98812.53;1678020;85;21275;-63
2022/01/18 01:55:30;;;;;;;8.98;2.77;;;;;;;1.14;78.55;98809.66;1677587;85;21220;-62
2022/01/18 01:58:35;;;;;;;7.40;3.10;;;;;;;1.10;78.44;98810.95;1677623;85;21327;-62
2022/01/18 02:02:02;;;;;;;7.17;3.40;;;;;;;1.06;78.40;98815.80;1678062;85;21216;-62
2022/01/18 02:05:08;;;;;;;8.60;4.67;;;;;;;1.05;78.32;98813.26;1737027;82;21423;-62
2022/01/18 02:08:16;;;;;;;6.80;3.10;;;;;;;1.07;78.32;98812.13;1741212;82;21198;-62
2022/01/18 02:11:21;;;;;;;5.78;2.50;;;;;;;1.10;78.27;98813.16;1740241;82;21213;-65
2022/01/18 02:14:28;;;;;;;5.87;2.70;;;;;;;1.14;78.22;98823.12;1739988;82;21229;-63
2022/01/18 02:24:21;;;;;;;;;;;;;;;1.28;77.81;98823.92;1743825;82;21257;-63
2022/01/18 02:27:26;;;;;;;7.92;3.10;;;;;;;1.32;77.66;98818.06;1739295;82;20229;-62
2022/01/18 02:30:33;;;;;;;9.93;3.15;;;;;;;1.35;77.64;98824.48;1740497;82;21936;-64
2022/01/18 02:33:39;;;;;;;4.30;2.15;;;;;;;1.38;77.35;98822.82;1740977;82;21388;-62
2022/01/18 02:36:45;;;;;;;6.17;2.10;;;;;;;1.37;77.17;98811.70;1740091;82;21583;-62
2022/01/18 02:39:51;;;;;;;7.22;2.85;;;;;;;1.34;76.98;98814.72;1741021;82;21273;-64
2022/01/18 02:42:59;;;;;;;5.85;2.25;;;;;;;1.33;76.98;98814.34;1740979;82;21217;-63
2022/01/18 02:46:04;;;;;;;7.35;2.47;;;;;;;1.33;76.94;98817.05;1725683;82;21332;-64
2022/01/18 02:49:15;;;;;;;5.62;2.50;;;;;;;1.30;76.94;98807.92;1740827;82;21284;-62
2022/01/18 02:52:21;;;;;;;6.97;3.35;;;;;;;1.27;76.90;98808.25;1741282;82;21217;-63
2022/01/18 02:55:27;;;;;;;8.80;3.08;;;;;;;1.26;76.92;98812.44;1725691;82;21383;-64
2022/01/18 02:58:34;;;;;;;8.25;3.50;;;;;;;1.22;76.95;98801.64;1741243;82;21329;-63
2022/01/18 03:05:04;;;;;;;5.70;3.00;;;;;;;1.17;77.04;98802.09;1735759;80;21353;-64
2022/01/18 03:08:10;;;;;;;6.95;3.30;;;;;;;1.14;77.05;98799.70;1733237;82;21369;-63
2022/01/18 03:11:18;;;;;;;6.35;2.72;;;;;;;1.13;77.26;98814.68;1733629;82;22179;-63
2022/01/18 03:14:24;;;;;;;5.83;2.92;;;;;;;1.13;77.22;98816.03;1733177;82;21400;-63
2022/01/18 03:17:30;;;;;;;5.42;2.27;;;;;;;1.12;77.26;98820.59;1733707;82;21215;-62
2022/01/18 03:20:36;;;;;;;7.72;2.60;;;;;;;1.10;77.29;98830.67;1733136;82;21370;-62
2022/01/18 03:23:42;;;;;;;4.22;2.60;;;;;;;1.10;77.43;98822.59;1716179;83;21376;-62
2022/01/18 03:30:13;;;;;;;;;;;;;;;1.12;77.47;98827.81;1735975;82;21238;-63
2022/01/18 03:33:21;;;;;;;8.08;2.77;;;;;;;1.10;77.48;98821.23;1733175;82;20274;-63
2022/01/18 03:36:27;;;;;;;5.05;2.33;;;;;;;1.10;77.49;98825.28;1733274;82;21202;-62
2022/01/18 03:39:32;;;;;;;5.90;3.05;;;;;;;1.09;77.47;98814.66;1733564;82;21302;-62
2022/01/18 03:42:42;;;;;;;5.03;2.15;;;;;;;1.06;77.42;98814.97;1733095;83;21781;-62
2022/01/18 03:45:54;;;;;;;6.55;2.60;;;;;;;1.01;77.40;98819.97;1733320;82;21360;-62
2022/01/18 03:49:02;;;;;;;8.20;2.65;;;;;;;0.98;77.40;98822.45;1733275;82;21377;-63
2022/01/18 03:52:06;;;;;;;6.58;2.37;;;;;;;0.97;77.37;98818.56;1733218;82;21341;-64
2022/01/18 03:55:15;;;;;;;6.28;2.25;;;;;;;0.95;77.32;98820.59;1733304;82;21395;-63
2022/01/18 03:58:22;;;;;;;6.10;2.70;;;;;;;0.94;77.25;98825.13;1733570;82;21238;-62
2022/01/18 04:01:28;;;;;;;5.70;2.40;;;;;;;0.94;77.28;98823.77;1733710;82;21257;-63
2022/01/18 04:04:35;;;;;;;7.87;2.92;;;;;;;0.94;77.29;98822.92;1733412;80;21222;-63
2022/01/18 04:07:41;;;;;;;7.42;2.72;;;;;;;0.95;77.38;98838.09;1733076;83;21392;-64
2022/01/18 04:10:52;;;;;;;6.28;2.85;;;;;;;0.97;77.46;98834.73;1733486;82;21442;-63
2022/01/18 04:13:58;;;;;;;7.80;3.40;;;;;;;1.00;77.66;98844.70;1733378;82;21395;-63
2022/01/18 04:17:13;;;;;;;14.80;6.42;;;;;;;1.04;77.90;98854.19;1733285;82;21325;-64
2022/01/18 04:27:13;;;;;;;6.47;2.60;;;;;;;1.08;78.80;98874.42;1733463;82;21313;-63
2022/01/18 04:30:18;;;;;;;7.45;2.80;;;;;;;1.06;79.37;98878.28;1733410;82;21388;-65
2022/01/18 04:33:25;;;;;;;5.62;2.47;;;;;;;1.05;79.98;98890.89;1733348;82;21424;-64
2022/01/18 04:36:32;;;;;;;5.08;2.12;;;;;;;1.04;80.54;98885.17;1733517;82;21380;-63
2022/01/18 04:39:40;;;;;;;4.55;1.87;;;;;;;1.01;80.88;98886.83;1717661;82;21227;-61
2022/01/18 04:49:21;;;;;;;5.22;1.98;;;;;;;0.72;79.64;98925.69;1703956;84;21237;-63
2022/01/18 04:52:28;;;;;;;2.50;1.42;;;;;;;0.51;79.69;98954.19;1717491;83;21203;-64
2022/01/18 04:55:35;;;;;;;2.15;1.50;;;;;;;0.32;79.58;98930.03;1733109;83;21435;-64
2022/01/18 04:58:51;;;;;;;4.08;1.40;;;;;;;0.22;79.63;98941.84;1733420;82;21211;-63
2022/01/18 05:01:57;;;;;;;2.85;1.45;;;;;;;0.17;79.11;98977.25;1733098;83;21341;-65
2022/01/18 05:05:05;;;;;;;2.33;1.40;;;;;;;0.09;78.45;98970.41;1733398;82;21368;-64
2022/01/18 05:08:15;;;;;;;2.15;1.50;;;;;;;0.00;77.57;98968.59;1736515;82;21849;-63
2022/01/18 05:11:25;;;;;;;2.47;1.20;;;;;;;-0.07;77.27;98980.41;1738626;82;21881;-64
2022/01/18 05:14:35;;;;;;;2.50;1.45;;;;;;;-0.09;76.95;98981.05;1726799;81;21467;-64
2022/01/18 05:18:08;;;;;;;3.98;2.15;;;;;;;-0.16;76.58;98992.00;1722041;82;21198;-63
2022/01/18 05:24:14;;;;;;;2.05;1.30;;;;;;;-0.18;76.67;99017.35;1681414;84;21373;-63
2022/01/18 05:27:21;;;;;;;3.20;1.50;;;;;;;-0.27;76.51;99043.75;1703449;83;21820;-65
2022/01/18 05:30:32;;;;;;;2.95;1.52;;;;;;;-0.47;77.02;99024.55;1682614;85;21387;-65
2022/01/18 05:33:40;;;;;;;1.42;1.27;;;;;;;-0.61;78.15;99027.64;1659529;85;21387;-64
2022/01/18 05:36:50;;;;;;;4.17;1.50;;;;;;;-0.67;79.98;99042.50;1657328;85;21230;-64
2022/01/18 05:39:57;;;;;;;5.67;1.57;;;;;;;-0.73;79.99;99026.08;1657160;86;21579;-63
2022/01/18 05:43:07;;;;;;;5.08;1.70;;;;;;;-0.78;79.99;99058.73;1662149;85;21385;-63
2022/01/18 05:46:14;;;;;;;2.15;1.60;;;;;;;-0.87;81.03;99062.22;1706948;83;21256;-65
2022/01/18 05:49:21;;;;;;;5.17;1.60;;;;;;;-1.04;83.73;99069.58;1706954;84;21238;-63
2022/01/18 05:52:28;;;;;;;2.60;1.20;;;;;;;-1.16;84.85;99112.76;1695963;83;21666;-64
2022/01/18 05:55:33;;;;;;;2.55;1.60;;;;;;;-1.24;84.87;99087.08;1706666;84;21198;-64
2022/01/18 05:58:38;;;;;;;2.55;1.25;;;;;;;-1.30;85.74;99088.45;1706776;82;21738;-62
2022/01/18 06:01:51;;;;;;;2.12;1.27;;;;;;;-1.34;86.68;99114.34;1706615;84;21707;-63
2022/01/18 06:08:19;;;;;;;4.35;2.08;;;;;;;-1.37;87.51;99126.69;1729611;79;21214;-63
2022/01/18 06:11:25;;;;;;;3.17;1.60;;;;;;;-1.33;87.88;99116.06;1715527;82;21198;-64
2022/01/18 06:14:30;;;;;;;5.40;2.10;;;;;;;-1.27;87.87;99119.08;1726425;82;21809;-64
2022/01/18 06:17:35;;;;;;;3.87;1.95;;;;;;;-1.17;88.30;99140.60;1721867;81;21221;-64
2022/01/18 06:20:46;;;;;;;2.27;1.37;;;;;;;-1.08;88.10;99133.08;1714112;82;21213;-63
2022/01/18 06:23:56;;;;;;;4.85;1.70;;;;;;;-0.98;88.07;99157.64;1727997;82;21241;-62
2022/01/18 06:27:02;;;;;;;3.15;1.90;;;;;;;-0.89;87.42;99147.94;1737088;82;21497;-63
2022/01/18 06:30:10;;;;;;;4.12;1.80;;;;;;;-0.88;86.75;99157.20;1708061;82;21770;-62
2022/01/18 06:33:14;;;;;;;2.33;1.60;;;;;;;-0.87;85.49;99185.75;1707211;82;21265;-63
2022/01/18 06:36:20;;;;;;;3.10;2.60;;;;;;;-0.97;85.40;99170.59;1736454;82;21318;-64
2022/01/18 06:39:24;;;;;;;2.83;1.80;;;;;;;-1.11;84.95;99202.64;1728152;82;21221;-63
2022/01/18 06:42:30;;;;;;;3.50;2.42;;;;;;;-1.17;84.80;99219.28;1737488;82;21592;-63
2022/01/18 06:45:36;;;;;;;5.17;1.55;;;;;;;-1.11;84.43;99188.39;1735261;82;21316;-62
2022/01/18 06:48:47;;;;;;;5.45;1.90;;;;;;;-1.05;83.69;99214.70;1736940;82;21638;-63
2022/01/18 06:51:53;;;;;;;2.67;1.67;;;;;;;-1.03;82.77;99212.75;1719767;82;21233;-64
2022/01/18 06:55:02;;;;;;;2.80;1.62;;;;;;;-1.11;82.56;99224.11;1733469;82;21396;-63
2022/01/18 06:58:12;;;;;;;3.62;1.62;;;;;;;-1.20;81.94;99249.06;1740242;81;21210;-64
2022/01/18 07:01:28;;;;;;;5.67;1.65;;;;;;;-1.24;82.24;99237.39;1710439;82;21802;-64
2022/01/18 07:04:39;;;;;;;3.55;1.80;;;;;;;-1.21;82.31;99249.20;1721587;81;21500;-65
2022/01/18 07:07:51;;;;;;;2.83;1.50;;;;;;;-1.09;82.20;99253.52;1718551;81;21439;-64
2022/01/18 07:10:59;;;;;;;2.27;1.70;;;;;;;-1.01;81.46;99259.95;1716613;83;21809;-62
2022/01/18 07:14:07;;;;;;;3.75;1.40;;;;;;;-0.94;80.47;99275.05;1713639;83;21253;-64
2022/01/18 07:17:21;;;;;;;3.22;2.02;;;;;;;-0.93;79.27;99264.66;1723672;81;21317;-64
2022/01/18 07:20:41;;;;;;;3.02;1.60;;;;;;;-0.92;78.35;99287.86;1719973;82;21340;-63
2022/01/18 07:23:51;;;;;;;7.25;1.82;;;;;;;-0.88;77.49;99261.95;1721863;82;21191;-63
2022/01/18 07:26:57;;;;;;;1.72;1.30;;;;;;;-0.83;76.42;99273.64;1712516;83;21265;-61
2022/01/18 07:30:02;;;;;;;1.75;1.30;;;;;;;-0.85;75.98;99275.59;1669606;85;21243;-62
2022/01/18 07:33:13;;;;;;;2.58;1.72;;;;;;;-0.91;75.32;99285.52;1714208;82;21716;-62
2022/01/18 07:36:19;;;;;;;3.62;1.90;;;;;;;-0.98;75.28;99296.45;1718861;82;21214;-63
2022/01/18 07:39:27;;;;;;;3.58;1.40;;;;;;;-0.93;74.76;99325.94;1716305;83;21729;-63
2022/01/18 07:42:34;;;;;;;3.62;1.80;;;;;;;-0.97;75.48;99315.59;1706121;82;21218;-63
2022/01/18 07:45:39;;;;;;;6.28;1.80;;;;;;;-0.99;77.13;99337.20;1715536;83;21360;-63
2022/01/18 07:48:48;;;;;;;4.50;1.55;;;;;;;-0.93;76.18;99338.51;1716973;82;21371;-62
2022/01/18 07:51:54;;;;;;;3.02;1.70;;;;;;;-0.92;75.16;99345.60;1717944;83;21238;-63
2022/01/18 07:55:03;;;;;;;3.42;1.80;;;;;;;-0.91;75.17;99337.90;1715094;83;21335;-63
2022/01/18 07:58:09;;;;;;;5.62;1.90;;;;;;;-0.85;74.35;99348.98;1718510;83;21286;-63
2022/01/18 08:01:18;;;;;;;3.37;1.80;;;;;;;-0.88;73.73;99352.41;1732433;82;21368;-64
2022/01/18 08:04:24;;;;;;;5.37;1.95;;;;;;;-0.89;73.36;99370.86;1714492;82;21289;-63
2022/01/18 08:07:31;;;;;;;3.12;2.00;;;;;;;-0.90;73.04;99379.88;1720907;81;21234;-63
2022/01/18 08:10:40;;;;;;;5.47;2.15;;;;;;;-0.96;73.90;99356.23;1727643;79;21249;-64
2022/01/18 08:13:49;;;;;;;5.08;2.67;;;;;;;-1.03;73.50;99396.16;1680106;84;21338;-63
2022/01/18 08:17:01;;;;;;;5.12;1.90;;;;;;;-1.08;73.53;99408.28;1644378;86;21313;-63
2022/01/18 08:20:13;;;;;;;4.62;2.05;;;;;;;-1.08;73.33;99391.69;1686082;85;21228;-64
2022/01/18 08:23:20;;;;;;;3.85;2.25;;;;;;;-1.09;73.07;99415.95;1676277;84;21349;-63
2022/01/18 08:26:27;;;;;;;3.65;2.05;;;;;;;-1.10;72.68;99397.67;1667203;84;21886;-64
2022/01/18 08:29:37;;;;;;;4.92;2.30;;;;;;;-1.02;72.31;99441.33;1666355;85;21795;-63
2022/01/18 08:32:46;;;;;;;3.08;2.22;;;;;;;-1.00;80.60;99412.02;1653516;86;21609;-62
2022/01/18 08:35:50;;;;;;;4.35;1.92;;;;;;;-0.89;83.04;99416.03;1672105;86;21200;-64
2022/01/18 08:38:55;;;;;;;3.83;1.65;;;;;;;-0.89;82.68;99443.38;1674188;85;21219;-64
2022/01/18 08:42:01;;;;;;;4.42;2.33;;;;;;;-0.90;83.64;99440.30;1671750;85;21349;-63
2022/01/18 08:45:08;;;;;;;4.15;2.47;;;;;;;-0.83;83.37;99459.84;1683255;84;21441;-63
2022/01/18 08:48:16;;;;;;;4.72;2.70;;;;;;;-0.79;82.62;99449.67;1649753;86;21380;-63
2022/01/18 08:51:22;;;;;;;7.30;2.90;;;;;;;-0.67;81.54;99459.41;1675247;85;21401;-62
2022/01/18 08:54:31;;;;;;;7.55;2.52;;;;;;;-0.58;80.36;99482.81;1680228;84;21795;-64
2022/01/18 08:57:46;;;;;;;4.58;2.02;;;;;;;-0.49;78.24;99467.29;1656950;86;21446;-64
2022/01/18 09:00:58;;;;;;;4.95;2.00;;;;;;;-0.38;76.72;99471.27;1675098;85;21319;-64
2022/01/18 09:04:05;;;;;;;;;;;;;;;-0.17;75.14;99473.45;1682569;85;21958;-65
2022/01/18 09:07:12;;;;;;;4.78;1.90;;;;;;;-0.02;72.87;99488.30;1652804;86;20276;-63
2022/01/18 09:10:23;;;;;;;3.35;1.75;;;;;;;0.03;70.72;99490.94;1627474;88;21289;-63
2022/01/18 09:13:30;;;;;;;4.22;2.20;;;;;;;0.06;69.47;99491.19;1674252;80;21313;-63
2022/01/18 09:16:36;;;;;;;7.53;2.25;;;;;;;0.22;68.48;99511.75;1710101;83;21720;-62
2022/01/18 09:19:45;;;;;;;4.83;2.08;;;;;;;0.33;67.43;99491.49;1708545;83;21285;-63
2022/01/18 09:22:56;;;;;;;4.30;1.90;;;;;;;0.28;66.83;99502.28;1689085;84;21206;-63
2022/01/18 09:26:04;;;;;;;4.70;2.10;;;;;;;0.24;66.14;99501.69;1710587;82;21230;-63
2022/01/18 09:29:12;;;;;;;4.10;2.08;;;;;;;0.11;66.14;99521.24;1732464;83;21395;-64
2022/01/18 09:32:19;;;;;;;5.37;2.83;;;;;;;0.16;66.19;99528.40;1732390;82;21211;-63
2022/01/18 09:35:24;;;;;;;5.75;2.27;;;;;;;0.24;65.62;99516.48;1713357;83;21253;-63
2022/01/18 09:38:32;;;;;;;3.87;2.05;;;;;;;0.27;65.31;99532.88;1732742;82;21396;-63
2022/01/18 09:41:50;;;;;;;4.40;2.10;;;;;;;0.25;65.11;99522.25;1713229;81;21706;-63
2022/01/18 09:44:55;;;;;;;3.80;2.58;;;;;;;0.31;64.83;99534.31;1726135;83;21379;-61
2022/01/18 09:48:03;;;;;;;4.37;2.02;;;;;;;0.29;64.01;99540.30;1727797;82;21218;-63
2022/01/18 09:51:10;;;;;;;7.53;2.27;;;;;;;0.16;63.33;99535.13;1720923;82;21198;-63
2022/01/18 09:54:18;;;;;;;5.37;2.30;;;;;;;0.14;63.58;99554.61;1704916;82;21241;-62
2022/01/18 09:57:27;;;;;;;4.30;2.02;;;;;;;0.11;65.75;99560.73;1730042;83;21262;-63
2022/01/18 10:00:34;;;;;;;4.80;2.30;;;;;;;0.17;65.77;99566.45;1731348;82;21719;-64
2022/01/18 10:03:42;;;;;;;5.03;2.33;;;;;;;0.26;64.80;99564.31;1723402;83;21888;-64
2022/01/18 10:06:48;;;;;;;4.53;2.40;;;;;;;0.36;64.47;99571.97;1708836;82;21206;-64
2022/01/18 10:09:54;;;;;;;5.80;2.40;;;;;;;0.37;63.78;99568.77;1716246;83;21222;-62
2022/01/18 10:13:04;;;;;;;3.62;2.22;;;;;;;0.31;63.20;99559.87;1722108;81;21308;-63
2022/01/18 10:16:24;;;;;;;4.00;2.05;;;;;;;0.27;62.73;99571.38;1677124;85;21194;-62
2022/01/18 10:19:50;;;;;;;5.03;1.92;;;;;;;0.29;62.12;99568.56;1674427;84;21819;-62
2022/01/18 10:22:58;;;;;;;6.75;3.35;;;;;;;0.26;61.50;99577.77;1657055;86;21229;-64
2022/01/18 10:26:05;;;;;;;6.45;2.40;;;;;;;0.22;60.66;99589.79;1657232;86;21206;-63
2022/01/18 10:29:15;;;;;;;5.65;2.40;;;;;;;-0.03;60.53;99595.50;1689390;84;21221;-63
2022/01/18 10:32:32;;;;;;;3.02;2.05;;;;;;;-0.13;61.05;99605.34;1712097;82;21793;-63
2022/01/18 10:35:29;;;;;;;3.87;2.17;;;;;;;-0.16;61.59;99600.23;1707832;84;21349;-62
2022/01/18 10:38:35;;;;;;;6.15;2.58;;;;;;;-0.15;61.76;99605.95;1714204;82;21234;-61
2022/01/18 10:41:46;;;;;;;4.10;2.15;;;;;;;-0.05;62.04;99636.49;1709410;83;21257;-63
2022/01/18 10:45:08;;;;;;;7.10;2.67;;;;;;;-0.06;61.84;99608.73;1709234;84;21360;-63
2022/01/18 10:48:22;;;;;;;6.78;2.50;;;;;;;-0.17;62.01;99611.94;1702844;82;21273;-63
2022/01/18 10:51:38;;;;;;;3.58;2.30;;;;;;;-0.25;61.98;99612.59;1710217;83;21206;-62
2022/01/18 10:54:54;;;;;;;3.33;1.90;;;;;;;-0.26;62.05;99640.95;1714223;82;21416;-62
2022/01/18 10:58:00;;;;;;;4.22;2.27;;;;;;;-0.28;62.38;99646.93;1731267;82;21476;-63
2022/01/18 11:01:25;;;;;;;6.22;3.08;;;;;;;-0.21;62.40;99646.80;1735171;82;21785;-62
2022/01/18 11:04:30;;;;;;;4.15;2.55;;;;;;;-0.22;62.52;99654.01;1739180;82;21388;-63
2022/01/18 11:07:39;;;;;;;5.15;2.98;;;;;;;-0.18;62.68;99655.48;1739179;82;21351;-64
2022/01/18 11:10:50;;;;;;;3.85;2.40;;;;;;;-0.14;62.38;99662.78;1698319;82;21884;-62
2022/01/18 11:14:02;;;;;;;7.83;2.50;;;;;;;-0.20;62.42;99660.61;1735039;82;21451;-63
2022/01/18 11:17:06;;;;;;;4.75;2.25;;;;;;;-0.35;63.12;99688.25;1701527;84;22048;-62
2022/01/18 11:20:14;;;;;;;9.08;3.47;;;;;;;-0.64;63.45;99660.67;1715370;83;21245;-63
2022/01/18 11:23:19;;;;;;;7.58;3.67;;;;;;;-0.71;63.92;99691.21;1695061;84;21453;-63
2022/01/18 11:26:28;;;;;;;5.97;3.05;;;;;;;-0.73;64.13;99681.06;1660875;85;21749;-63
2022/01/18 11:29:38;;;;;;;3.55;2.10;;;;;;;-0.74;64.12;99680.71;1717234;83;21290;-62
2022/01/18 11:32:43;;;;;;;8.58;2.92;;;;;;;-0.76;64.36;99680.48;1728952;83;21246;-62
2022/01/18 11:36:10;;;;;;;5.47;2.37;;;;;;;-0.70;64.60;99676.79;1710910;81;21421;-63
2022/01/18 11:39:16;;;;;;;3.60;2.60;;;;;;;-0.63;64.94;99706.23;1718774;83;21388;-62
2022/01/18 11:42:22;;;;;;;5.67;2.83;;;;;;;-0.60;65.83;99702.44;1708433;83;21280;-63
2022/01/18 11:45:39;;;;;;;7.80;3.02;;;;;;;-0.67;66.92;99714.67;1705786;83;21191;-62
2022/01/18 11:48:54;;;;;;;4.47;2.47;;;;;;;-0.75;67.23;99725.16;1712253;83;21443;-63
2022/01/18 11:52:11;;;;;;;5.65;2.58;;;;;;;-0.78;67.90;99732.13;1722264;83;21360;-63
2022/01/18 11:55:19;;;;;;;7.67;2.90;;;;;;;-0.81;67.52;99722.97;1716659;83;21383;-62
2022/01/18 11:58:27;;;;;;;4.97;2.50;;;;;;;-0.93;68.31;99745.40;1691149;84;21246;-63
2022/01/18 12:01:56;;;;;;;6.25;3.27;;;;;;;-0.99;69.24;99737.34;1702379;83;21471;-63
2022/01/18 12:05:13;;;;;;;4.35;2.62;;;;;;;-1.20;74.68;99752.90;1705201;83;21341;-63
2022/01/18 12:08:16;;;;;;;4.33;2.87;;;;;;;-1.24;75.30;99767.55;1662768;83;21761;-63
2022/01/18 12:11:36;;;;;;;5.78;3.62;;;;;;;-1.30;76.54;99759.45;1709494;83;21633;-64
2022/01/18 12:14:43;;;;;;;7.17;2.70;;;;;;;-1.36;75.81;99764.46;1711635;82;21773;-63
2022/01/18 12:18:05;;;;;;;6.35;3.08;;;;;;;-1.41;74.08;99762.61;1718509;80;21244;-63
2022/01/18 12:21:14;;;;;;;5.97;2.92;;;;;;;-1.44;73.11;99780.28;1695410;84;21881;-63
2022/01/18 12:24:28;;;;;;;4.12;2.52;;;;;;;-1.52;72.59;99775.98;1694370;82;21844;-63
2022/01/18 12:27:39;;;;;;;3.45;2.50;;;;;;;-1.55;72.97;99807.91;1668163;85;21666;-63
2022/01/18 12:31:22;;;;;;;4.45;2.92;;;;;;;-1.55;72.63;99788.64;1684398;83;21285;-62
2022/01/18 12:34:38;;;;;;;5.40;2.65;;;;;;;-1.55;71.66;99794.02;1701260;84;21232;-62
2022/01/18 12:37:50;;;;;;;4.40;2.90;;;;;;;-1.63;71.18;99795.06;1650003;85;21246;-61
2022/01/18 12:40:55;;;;;;;5.70;3.00;;;;;;;-1.62;71.12;99815.55;1677985;84;21216;-63
2022/01/18 12:44:24;;;;;;;4.80;2.45;;;;;;;-1.64;70.64;99812.63;1681819;83;21317;-65
2022/01/18 12:47:28;;;;;;;4.00;2.70;;;;;;;-1.68;70.45;99818.69;1661189;84;21229;-61
2022/01/18 12:50:45;;;;;;;4.83;2.90;;;;;;;-1.70;70.62;99831.34;1657854;86;21388;-62
2022/01/18 12:53:54;;;;;;;6.47;2.27;;;;;;;-1.75;70.16;99821.47;1681528;85;21790;-63
2022/01/18 12:57:02;;;;;;;4.22;2.75;;;;;;;-1.77;70.15;99834.59;1642118;85;21279;-62
2022/01/18 13:00:17;;;;;;;3.85;2.10;;;;;;;-1.80;70.29;99845.08;1718600;81;21210;-62
2022/01/18 13:03:45;;;;;;;10.38;3.20;;;;;;;-1.80;70.50;99852.27;1727421;82;21254;-63
2022/01/18 13:06:55;;;;;;;7.03;3.12;;;;;;;-1.87;70.56;99849.16;1723968;81;21210;-64
2022/01/18 13:10:13;;;;;;;19.12;11.43;;;;;;;-1.89;70.79;99869.86;1720819;82;21233;-63
2022/01/18 13:13:27;;;;;;;9.48;6.28;;;;;;;-2.00;71.65;99865.75;1707377;84;21229;-64
2022/01/18 13:23:09;;;;;;;7.33;3.77;;;;;;;-2.18;72.78;99896.58;1722316;82;21742;-62
2022/01/18 13:26:17;;;;;;;7.15;3.15;;;;;;;-2.22;72.95;99905.78;1721196;83;21786;-63
2022/01/18 13:29:32;;;;;;;6.62;3.25;;;;;;;-2.26;72.98;99915.48;1714639;82;21305;-62
2022/01/18 13:32:41;;;;;;;8.60;3.12;;;;;;;-2.36;73.34;99931.85;1720894;82;21257;-64
2022/01/18 13:35:54;;;;;;;10.05;3.08;;;;;;;-2.40;73.69;99933.88;1712494;83;21213;-62
2022/01/18 13:39:00;;;;;;;6.95;4.50;;;;;;;-2.39;73.93;99953.47;1714343;82;21750;-63
2022/01/18 13:42:10;;;;;;;7.72;3.40;;;;;;;-2.41;74.49;99955.42;1703133;84;21272;-62
2022/01/18 13:45:31;;;;;;;9.08;3.33;;;;;;;-2.42;74.56;99950.53;1702730;84;21222;-64
2022/01/18 13:48:39;;;;;;;8.85;4.15;;;;;;;-2.38;74.58;99961.40;1723844;82;21198;-63
2022/01/18 13:51:45;;;;;;;9.93;4.22;;;;;;;-2.38;74.60;99965.42;1723854;83;21246;-63
2022/01/18 13:55:01;;;;;;;14.55;5.15;;;;;;;-2.38;74.65;99972.63;1711694;83;21237;-63
2022/01/18 13:58:08;;;;;;;15.18;3.40;;;;;;;-2.42;75.06;99981.34;1721074;82;21261;-64
2022/01/18 14:01:29;;;;;;;5.37;3.10;;;;;;;-2.45;75.46;99983.37;1712773;82;21171;-63
2022/01/18 14:04:33;;;;;;;6.65;3.80;;;;;;;-2.52;75.63;99985.60;1705241;83;21763;-63
2022/01/18 14:07:41;;;;;;;5.30;3.33;;;;;;;-2.55;75.79;99999.71;1723413;82;21210;-64
2022/01/18 14:10:48;;;;;;;8.55;4.78;;;;;;;-2.53;75.96;100001.31;1703087;83;21190;-64
2022/01/18 14:13:57;;;;;;;58.68;29.05;;;;;;;-2.49;75.91;100008.16;1732040;83;21407;-62
2022/01/18 14:17:11;;;;;;;12.78;6.80;;;;;;;-2.49;75.93;100010.84;1719707;81;21223;-66
2022/01/18 14:20:19;;;;;;;14.75;6.47;;;;;;;-2.48;75.70;100020.62;1695160;81;21220;-64
2022/01/18 14:23:29;;;;;;;17.65;9.40;;;;;;;-2.47;75.47;100014.76;1706713;83;21261;-64
2022/01/18 14:26:35;;;;;;;8.98;5.92;;;;;;;-2.52;75.26;100016.41;1721615;82;21236;-64
2022/01/18 14:29:55;;;;;;;11.38;4.78;;;;;;;-2.55;75.07;100027.34;1714405;83;21755;-62
2022/01/18 14:33:04;;;;;;;7.45;4.92;;;;;;;-2.61;74.95;100053.20;1711666;82;21211;-63
2022/01/18 14:36:12;;;;;;;8.48;5.30;;;;;;;-2.66;75.55;100040.59;1711242;83;21202;-63
2022/01/18 14:39:18;;;;;;;8.73;4.07;;;;;;;-2.69;76.74;100042.60;1690364;84;21234;-63
2022/01/18 14:42:33;;;;;;;6.85;4.10;;;;;;;-2.74;76.83;100065.67;1713842;81;21335;-62
2022/01/18 14:46:02;;;;;;;9.63;5.22;;;;;;;-2.80;76.71;100048.67;1704058;83;21309;-62
2022/01/18 14:49:09;;;;;;;26.48;14.87;;;;;;;-2.86;76.79;100061.13;1727070;82;21241;-62
2022/01/18 14:52:15;;;;;;;10.95;7.20;;;;;;;-2.84;76.87;100075.29;1727746;83;21214;-64
2022/01/18 14:55:21;;;;;;;8.20;4.65;;;;;;;-2.81;76.72;100079.10;1722252;82;22059;-62
2022/01/18 14:58:31;;;;;;;5.22;3.25;;;;;;;-2.80;76.55;100079.47;1720488;82;21747;-62
2022/01/18 15:01:36;;;;;;;8.70;4.37;;;;;;;-2.81;76.17;100099.19;1726430;82;21245;-63
2022/01/18 15:04:42;;;;;;;7.05;4.28;;;;;;;-2.81;76.24;100091.16;1682347;84;21244;-63
2022/01/18 15:07:49;;;;;;;7.22;4.45;;;;;;;-2.73;76.21;100102.23;1707987;83;21217;-64
2022/01/18 15:10:54;;;;;;;9.10;6.12;;;;;;;-2.66;75.88;100103.53;1705095;83;21258;-63
2022/01/18 15:13:59;;;;;;;8.45;5.72;;;;;;;-2.60;75.69;100108.48;1703008;83;21210;-62
2022/01/18 15:17:11;;;;;;;15.32;10.25;;;;;;;-2.55;75.40;100117.59;1724407;83;21726;-63
2022/01/18 15:20:17;;;;;;;43.60;15.40;;;;;;;-2.58;75.25;100127.13;1727781;79;21763;-67
2022/01/18 15:23:25;;;;;;;24.57;11.18;;;;;;;-2.62;77.33;100126.50;1712648;83;21317;-64
2022/01/18 15:26:34;;;;;;;9.08;4.67;;;;;;;-2.67;77.31;100127.27;1702418;83;21791;-65
2022/01/18 15:29:43;;;;;;;11.18;8.10;;;;;;;-2.73;77.13;100126.34;1698168;83;21855;-61
2022/01/18 15:32:51;;;;;;;20.37;13.58;;;;;;;-2.76;76.56;100142.61;1697409;83;21269;-64
2022/01/18 15:35:57;;;;;;;11.93;5.85;;;;;;;-2.77;76.32;100123.45;1694520;84;21361;-62
2022/01/18 15:39:04;;;;;;;12.13;5.90;;;;;;;-2.80;76.25;100138.86;1693946;83;21731;-62
2022/01/18 15:42:11;;;;;;;13.88;5.10;;;;;;;-2.82;76.40;100126.91;1694673;84;21194;-63
2022/01/18 15:45:17;;;;;;;12.47;5.05;;;;;;;-2.84;76.63;100150.27;1694784;84;21253;-63
2022/01/18 15:48:23;;;;;;;10.68;5.03;;;;;;;-2.83;76.69;100157.80;1694623;84;21288;-62
2022/01/18 15:51:27;;;;;;;8.65;4.90;;;;;;;-2.89;76.47;100152.37;1704555;82;21221;-63
2022/01/18 15:54:33;;;;;;;8.50;4.65;;;;;;;-2.92;76.23;100166.42;1709834;83;21776;-64
2022/01/18 15:57:40;;;;;;;8.55;4.67;;;;;;;-2.95;76.13;100166.63;1697957;82;21567;-64